Time;durP1;ratioP1;P1;durP2;ratioP2;P2;SDS_P1;SDS_P2;PMS_P1;PMS_P2;Temp;Humidity;BMP_temperature;BMP_pressure;BME280_temperature;BME280_humidity;BME280_pressure;Samples;Min_cycle;Max_cycle;Signal;HPM_P1;HPM_P2
2023/01/26 00:00:10;;;;;;;;;;;;;;;1.67;100.00;101213.91;5560335;31;33383;-69
2023/01/26 00:03:20;;;;;;;;;;;;;;;1.68;100.00;101205.16;5573623;31;34228;-69
2023/01/26 00:06:28;;;;;;;;;;;;;;;1.58;100.00;101199.63;5571866;31;33756;-70
2023/01/26 00:09:35;;;;;;;;;;;;;;;1.60;100.00;101200.34;5572514;31;34555;-69
2023/01/26 00:12:43;;;;;;;;;;;;;;;1.71;100.00;101197.09;5573112;31;34706;-69
2023/01/26 00:15:54;;;;;;;;;;;;;;;1.64;100.00;101199.28;5573356;31;34644;-69
2023/01/26 00:19:02;;;;;;;;;;;;;;;1.62;100.00;101190.66;5585343;31;34722;-69
2023/01/26 00:22:11;;;;;;;;;;;;;;;1.67;100.00;101188.63;5606381;31;34689;-69
2023/01/26 00:25:16;;;;;;;;;;;;;;;1.71;100.00;101190.09;5607788;31;33917;-69
2023/01/26 00:28:22;;;;;;;;;;;;;;;1.77;100.00;101191.53;5608398;31;33961;-71
2023/01/26 00:31:29;;;;;;;;;;;;;;;1.80;100.00;101188.72;5594713;31;34604;-69
2023/01/26 00:34:36;;;;;;;;;;;;;;;1.79;100.00;101180.97;5594829;31;34870;-69
2023/01/26 00:37:47;;;;;;;;;;;;;;;1.63;100.00;101181.03;5608370;31;34387;-69
2023/01/26 00:40:58;;;;;;;;;;;;;;;1.65;100.00;101185.22;5582086;31;35448;-69
2023/01/26 00:44:05;;;;;;;;;;;;;;;1.64;100.00;101178.34;5608390;31;33608;-69
2023/01/26 00:47:12;;;;;;;;;;;;;;;1.62;100.00;101174.12;5594929;31;34128;-69
2023/01/26 00:50:21;;;;;;;;;;;;;;;1.73;100.00;101179.56;5594878;31;33694;-69
2023/01/26 00:53:26;;;;;;;;;;;;;;;1.72;100.00;101176.09;5608494;31;34162;-69
2023/01/26 00:56:35;;;;;;;;;;;;;;;1.72;100.00;101175.25;5595123;31;33908;-69
2023/01/26 00:59:44;;;;;;;;;;;;;;;1.72;100.00;101164.78;5581996;31;34224;-69
2023/01/26 01:02:55;;;;;;;;;;;;;;;1.82;100.00;101165.09;5608487;31;34875;-69
2023/01/26 01:06:04;;;;;;;;;;;;;;;1.90;100.00;101168.06;5595005;31;34981;-69
2023/01/26 01:09:11;;;;;;;;;;;;;;;1.73;100.00;101172.56;5596790;31;34999;-69
2023/01/26 01:12:20;;;;;;;;;;;;;;;1.79;100.00;101166.13;5594822;31;33873;-69
2023/01/26 01:15:28;;;;;;;;;;;;;;;1.82;100.00;101158.06;5608327;31;33960;-69
2023/01/26 01:18:37;;;;;;;;;;;;;;;1.76;100.00;101163.66;5594935;31;34133;-69
2023/01/26 01:21:46;;;;;;;;;;;;;;;1.65;100.00;101160.84;5594870;31;34763;-69
2023/01/26 01:24:54;;;;;;;;;;;;;;;1.67;100.00;101159.84;5593973;31;33982;-69
2023/01/26 01:28:05;;;;;;;;;;;;;;;1.67;100.00;101162.47;5583095;31;35231;-69
2023/01/26 01:31:16;;;;;;;;;;;;;;;1.62;100.00;101155.81;5594019;31;32717;-69
2023/01/26 01:34:23;;;;;;;;;;;;;;;1.62;100.00;101155.81;5580587;31;33358;-69
2023/01/26 01:37:35;;;;;;;;;;;;;;;1.75;100.00;101154.97;5607532;31;34231;-69
2023/01/26 01:40:43;;;;;;;;;;;;;;;1.75;100.00;101148.91;5581097;31;33872;-69
2023/01/26 01:44:12;;;;;;;;;;;;;;;1.63;100.00;101149.66;5594800;31;34095;-69
2023/01/26 01:47:23;;;;;;;;;;;;;;;1.56;100.00;101148.31;5581110;31;34215;-69
2023/01/26 01:50:37;;;;;;;;;;;;;;;1.53;100.00;101138.91;5594822;31;34407;-69
2023/01/26 01:53:46;;;;;;;;;;;;;;;1.56;100.00;101143.94;5607933;31;34150;-69
2023/01/26 01:56:57;;;;;;;;;;;;;;;1.65;100.00;101137.31;5607893;31;34079;-69
2023/01/26 02:00:05;;;;;;;;;;;;;;;1.54;100.00;101137.12;5607836;31;33901;-67
2023/01/26 02:03:22;;;;;;;;;;;;;;;1.54;100.00;101137.12;5607751;31;34840;-68
2023/01/26 02:06:34;;;;;;;;;;;;;;;1.63;100.00;101134.81;5594101;31;35136;-68
2023/01/26 02:13:08;;;;;;;;;;;;;;;1.61;100.00;101126.19;5608037;31;34703;-69
2023/01/26 02:16:19;;;;;;;;;;;;;;;1.67;100.00;101104.91;5594508;31;34843;-68
2023/01/26 02:19:37;;;;;;;;;;;;;;;1.68;100.00;101106.59;5594419;31;34308;-70
2023/01/26 02:22:53;;;;;;;;;;;;;;;1.67;100.00;101101.47;5594027;31;35822;-69
2023/01/26 02:26:06;;;;;;;;;;;;;;;1.57;100.00;101105.56;5594337;31;34792;-69
2023/01/26 02:29:15;;;;;;;;;;;;;;;1.57;100.00;101097.72;5607578;31;34818;-69
2023/01/26 02:32:23;;;;;;;;;;;;;;;1.63;100.00;101092.13;5607939;31;34449;-71
2023/01/26 02:35:31;;;;;;;;;;;;;;;1.59;100.00;101088.03;5594045;31;33922;-69
2023/01/26 02:38:41;;;;;;;;;;;;;;;1.63;100.00;101081.66;5607881;31;34195;-70
2023/01/26 02:45:17;;;;;;;;;;;;;;;1.61;100.00;101080.91;5607347;31;34588;-69
2023/01/26 02:51:51;;;;;;;;;;;;;;;1.68;100.00;101070.00;5607493;31;34545;-69
2023/01/26 02:58:24;;;;;;;;;;;;;;;1.49;100.00;101061.59;5607440;31;34794;-69
2023/01/26 03:01:33;;;;;;;;;;;;;;;1.50;100.00;101058.00;5580627;31;34396;-69
2023/01/26 03:04:41;;;;;;;;;;;;;;;1.50;100.00;101050.19;5607252;31;33773;-70
2023/01/26 03:07:50;;;;;;;;;;;;;;;1.68;100.00;101056.91;5607069;31;33903;-68
2023/01/26 03:11:00;;;;;;;;;;;;;;;1.59;100.00;101052.25;5594011;31;34448;-68
2023/01/26 03:14:11;;;;;;;;;;;;;;;1.49;100.00;101045.91;5592652;31;34384;-68
2023/01/26 03:17:19;;;;;;;;;;;;;;;1.47;100.00;101046.91;5580337;31;33086;-68
2023/01/26 03:27:33;;;;;;;;;;;;;;;1.51;100.00;101041.41;5607273;31;34318;-68
2023/01/26 03:30:45;;;;;;;;;;;;;;;1.45;100.00;101036.56;5594020;31;34926;-68
2023/01/26 03:33:54;;;;;;;;;;;;;;;1.45;100.00;101028.72;5593666;31;34206;-68
2023/01/26 03:37:05;;;;;;;;;;;;;;;1.46;100.00;101021.69;5607064;31;34456;-69
2023/01/26 03:57:37;;;;;;;;;;;;;;;1.35;100.00;101006.69;5595529;31;33719;-68
2023/01/26 04:00:47;;;;;;;;;;;;;;;1.44;100.00;101003.50;5592935;31;34291;-68
2023/01/26 04:10:54;;;;;;;;;;;;;;;1.32;100.00;101001.62;5606652;31;34198;-68
2023/01/26 04:24:31;;;;;;;;;;;;;;;1.39;100.00;100983.81;5606469;31;33909;-69
2023/01/26 04:27:37;;;;;;;;;;;;;;;1.37;100.00;100981.28;5606444;31;34591;-68
2023/01/26 04:30:46;;;;;;;;;;;;;;;1.25;100.00;100984.66;5591859;31;33192;-68
2023/01/26 04:33:55;;;;;;;;;;;;;;;1.28;100.00;100981.84;5593086;31;34363;-68
2023/01/26 04:37:04;;;;;;;;;;;;;;;1.27;100.00;100973.16;5592939;31;34498;-68
2023/01/26 04:40:17;;;;;;;;;;;;;;;1.20;100.00;100984.94;5606107;31;33973;-70
2023/01/26 04:43:27;;;;;;;;;;;;;;;1.22;100.00;100982.22;5592727;31;35461;-69
2023/01/26 04:46:38;;;;;;;;;;;;;;;1.19;100.00;100979.81;5592914;31;34186;-68
2023/01/26 04:49:49;;;;;;;;;;;;;;;1.23;100.00;100974.28;5605944;31;34049;-69
2023/01/26 04:52:54;;;;;;;;;;;;;;;1.26;100.00;100978.47;5591327;31;34135;-68
2023/01/26 04:56:04;;;;;;;;;;;;;;;1.22;100.00;100977.00;5605731;31;34268;-70
2023/01/26 04:59:10;;;;;;;;;;;;;;;1.22;100.00;100964.75;5605653;31;34169;-69
2023/01/26 05:02:21;;;;;;;;;;;;;;;1.22;100.00;100967.38;5578688;31;33653;-69
2023/01/26 05:05:34;;;;;;;;;;;;;;;1.30;100.00;100967.78;5605557;31;34139;-69
2023/01/26 05:08:44;;;;;;;;;;;;;;;1.27;100.00;100972.31;5590750;31;32608;-69
2023/01/26 05:12:32;;;;;;;;;;;;;;;1.23;100.00;100971.69;5607190;31;34932;-69
2023/01/26 05:15:22;;;;;;;;;;;;;;;1.14;100.00;100971.41;5606873;31;34820;-70
2023/01/26 05:18:28;;;;;;;;;;;;;;;1.12;100.00;100978.47;5594693;31;34394;-69
2023/01/26 05:21:42;;;;;;;;;;;;;;;1.16;100.00;100975.59;5586361;31;33932;-70
2023/01/26 05:24:48;;;;;;;;;;;;;;;1.12;100.00;100970.62;5577537;31;35447;-70
2023/01/26 05:27:59;;;;;;;;;;;;;;;1.15;100.00;100978.31;5590963;31;34058;-69
2023/01/26 05:31:07;;;;;;;;;;;;;;;1.16;100.00;100972.16;5590870;31;34225;-69
2023/01/26 05:34:15;;;;;;;;;;;;;;;1.20;100.00;100964.03;5577723;31;34893;-70
2023/01/26 05:37:23;;;;;;;;;;;;;;;1.17;100.00;100969.44;5590779;31;34348;-69
2023/01/26 05:40:35;;;;;;;;;;;;;;;1.21;100.00;100968.31;5577946;31;34665;-70
2023/01/26 05:43:45;;;;;;;;;;;;;;;1.10;100.00;100981.22;5575998;31;33413;-70
2023/01/26 05:46:52;;;;;;;;;;;;;;;1.15;100.00;100986.16;5577392;31;34830;-69
2023/01/26 05:49:59;;;;;;;;;;;;;;;1.14;100.00;100980.09;5590707;31;34616;-69
2023/01/26 05:53:06;;;;;;;;;;;;;;;1.07;100.00;100977.91;5577618;31;34785;-69
2023/01/26 05:56:14;;;;;;;;;;;;;;;1.25;100.00;100975.06;5590364;31;34672;-69
2023/01/26 05:59:23;;;;;;;;;;;;;;;1.20;100.00;100976.25;5576736;31;33178;-69
2023/01/26 06:02:28;;;;;;;;;;;;;;;1.16;100.00;100980.81;5577090;31;34449;-70
2023/01/26 06:05:37;;;;;;;;;;;;;;;1.16;100.00;100983.44;5577026;31;34134;-69
2023/01/26 06:08:43;;;;;;;;;;;;;;;1.10;100.00;100980.38;5590067;31;34487;-69
2023/01/26 06:11:51;;;;;;;;;;;;;;;1.30;100.00;100967.78;5577355;31;34199;-69
2023/01/26 06:14:57;;;;;;;;;;;;;;;1.28;100.00;100981.84;5577102;31;34283;-69
2023/01/26 06:18:05;;;;;;;;;;;;;;;1.21;100.00;100978.75;5590767;31;34297;-69
2023/01/26 06:21:13;;;;;;;;;;;;;;;1.30;100.00;100975.63;5577048;31;34061;-69
2023/01/26 06:24:18;;;;;;;;;;;;;;;1.30;100.00;100980.00;5590301;31;34159;-69
2023/01/26 06:27:26;;;;;;;;;;;;;;;1.26;100.00;100978.47;5589614;31;34880;-69
2023/01/26 06:30:36;;;;;;;;;;;;;;;1.30;100.00;100972.16;5577557;31;34779;-69
2023/01/26 06:33:42;;;;;;;;;;;;;;;1.14;100.00;100981.84;5576423;31;33785;-69
2023/01/26 06:36:48;;;;;;;;;;;;;;;1.07;100.00;100973.53;5576664;31;34776;-69
2023/01/26 06:39:54;;;;;;;;;;;;;;;1.05;100.00;100977.19;5590159;31;33901;-69
2023/01/26 06:42:59;;;;;;;;;;;;;;;1.06;100.00;100973.66;5576621;31;34295;-70
2023/01/26 06:46:04;;;;;;;;;;;;;;;1.02;100.00;100972.97;5589803;31;34199;-68
2023/01/26 06:49:09;;;;;;;;;;;;;;;1.03;100.00;100971.19;5576110;31;34784;-69
2023/01/26 06:52:29;;;;;;;;;;;;;;;1.05;100.00;100964.12;5589752;31;34325;-68
2023/01/26 06:55:36;;;;;;;;;;;;;;;1.07;100.00;100968.31;5576572;31;34497;-67
2023/01/26 06:58:45;;;;;;;;;;;;;;;1.21;100.00;100964.88;5576943;31;34137;-68
2023/01/26 07:01:50;;;;;;;;;;;;;;;1.21;100.00;100967.50;5589875;31;34446;-68
2023/01/26 07:04:56;;;;;;;;;;;;;;;1.25;100.00;100955.91;5589645;31;34162;-68
2023/01/26 07:08:03;;;;;;;;;;;;;;;1.15;100.00;100967.88;5589315;31;34146;-68
2023/01/26 07:11:08;;;;;;;;;;;;;;;1.24;100.00;100968.13;5563782;31;35576;-69
2023/01/26 07:14:12;;;;;;;;;;;;;;;1.18;100.00;100959.81;5575449;31;34564;-70
2023/01/26 07:17:15;;;;;;;;;;;;;;;1.15;100.00;100960.88;5589543;31;34255;-70
2023/01/26 07:20:19;;;;;;;;;;;;;;;1.14;100.00;100959.19;5589802;31;34612;-70
2023/01/26 07:23:23;;;;;;;;;;;;;;;1.14;100.00;100956.56;5576072;31;34358;-67
2023/01/26 07:26:28;;;;;;;;;;;;;;;1.19;100.00;100949.28;5575536;31;33142;-68
2023/01/26 07:29:33;;;;;;;;;;;;;;;1.20;100.00;100960.59;5575969;31;34935;-69
2023/01/26 07:32:37;;;;;;;;;;;;;;;1.38;100.00;100951.59;5589660;31;33691;-69
2023/01/26 07:35:41;;;;;;;;;;;;;;;1.32;100.00;100951.97;5575540;31;34788;-70
2023/01/26 07:38:44;;;;;;;;;;;;;;;1.47;100.00;100940.56;5575606;31;34058;-69
2023/01/26 07:41:48;;;;;;;;;;;;;;;1.34;100.00;100944.88;5589549;31;34140;-68
2023/01/26 07:44:58;;;;;;;;;;;;;;;1.35;100.00;100938.72;5576605;31;34159;-68
2023/01/26 07:48:03;;;;;;;;;;;;;;;1.27;100.00;100943.56;5589830;31;34766;-68
2023/01/26 07:51:09;;;;;;;;;;;;;;;1.37;100.00;100943.84;5575907;31;34803;-69
2023/01/26 07:54:15;;;;;;;;;;;;;;;1.30;100.00;100944.25;5562477;31;34013;-68
2023/01/26 07:57:20;;;;;;;;;;;;;;;1.29;100.00;100946.94;5575780;31;34700;-68
2023/01/26 08:00:25;;;;;;;;;;;;;;;1.45;100.00;100945.06;5575940;31;34270;-68
2023/01/26 08:03:29;;;;;;;;;;;;;;;1.47;100.00;100945.78;5589180;31;34852;-68
2023/01/26 08:06:32;;;;;;;;;;;;;;;1.36;100.00;100943.00;5589070;31;34734;-68
2023/01/26 08:09:37;;;;;;;;;;;;;;;1.50;100.00;100942.16;5575787;31;34126;-70
2023/01/26 08:12:41;;;;;;;;;;;;;;;1.49;100.00;100943.94;5575460;31;34191;-68
2023/01/26 08:15:45;;;;;;;;;;;;;;;1.32;100.00;100946.75;5574922;31;33063;-70
2023/01/26 08:18:50;;;;;;;;;;;;;;;1.52;100.00;100943.72;5575358;31;32797;-70
2023/01/26 08:21:56;;;;;;;;;;;;;;;1.51;100.00;100942.03;5588963;31;34969;-68
2023/01/26 08:25:00;;;;;;;;;;;;;;;1.62;100.00;100934.38;5575536;31;34144;-70
2023/01/26 08:28:05;;;;;;;;;;;;;;;1.77;100.00;100945.63;5575468;31;34062;-70
2023/01/26 08:31:11;;;;;;;;;;;;;;;1.85;100.00;100939.91;5574909;31;34150;-68
2023/01/26 08:34:16;;;;;;;;;;;;;;;1.81;100.00;100933.19;5575014;31;34002;-67
2023/01/26 08:37:20;;;;;;;;;;;;;;;1.87;100.00;100943.28;5561511;31;33218;-69
2023/01/26 08:40:24;;;;;;;;;;;;;;;1.95;100.00;100941.00;5588962;31;34434;-68
2023/01/26 08:43:30;;;;;;;;;;;;;;;1.63;100.00;100943.91;5575173;31;34998;-68
2023/01/26 08:46:38;;;;;;;;;;;;;;;1.74;100.00;100948.47;5590921;31;34091;-68
2023/01/26 08:49:44;;;;;;;;;;;;;;;1.67;100.00;100940.16;5577701;31;34759;-69
2023/01/26 08:52:48;;;;;;;;;;;;;;;1.61;100.00;100940.53;5564417;31;35302;-68
2023/01/26 08:55:52;;;;;;;;;;;;;;;1.95;100.00;100933.97;5590744;31;34874;-68
2023/01/26 08:58:57;;;;;;;;;;;;;;;1.78;100.00;100936.84;5591071;31;34867;-68
2023/01/26 09:02:01;;;;;;;;;;;;;;;1.61;100.00;100937.91;5590995;31;34180;-68
2023/01/26 09:05:07;;;;;;;;;;;;;;;1.67;100.00;100939.31;5564655;31;34784;-69
2023/01/26 09:08:12;;;;;;;;;;;;;;;1.67;100.00;100945.37;5590928;31;34129;-68
2023/01/26 09:11:17;;;;;;;;;;;;;;;1.52;100.00;100943.72;5577729;31;34254;-68
2023/01/26 09:14:22;;;;;;;;;;;;;;;1.56;100.00;100945.22;5577601;31;34864;-68
2023/01/26 09:17:27;;;;;;;;;;;;;;;1.89;100.00;100949.25;5577411;31;34168;-68
2023/01/26 09:20:31;;;;;;;;;;;;;;;2.01;100.00;100943.22;5590906;31;34751;-68
2023/01/26 09:23:37;;;;;;;;;;;;;;;1.62;100.00;100941.38;5590797;31;34164;-68
2023/01/26 09:26:41;;;;;;;;;;;;;;;1.79;100.00;100940.31;5590988;31;34856;-68
2023/01/26 09:29:45;;;;;;;;;;;;;;;1.64;100.00;100937.75;5590754;31;34285;-68
2023/01/26 09:32:50;;;;;;;;;;;;;;;1.59;100.00;100934.56;5564299;31;32708;-68
2023/01/26 09:35:54;;;;;;;;;;;;;;;1.67;100.00;100936.69;5576791;31;34186;-69
2023/01/26 09:38:59;;;;;;;;;;;;;;;1.88;100.00;100934.50;5590697;31;34449;-68
2023/01/26 09:42:26;;;;;;;;;;;;;;;1.62;100.00;100936.97;5590515;31;34220;-68
2023/01/26 09:45:32;;;;;;;;;;;;;;;1.60;100.00;100936.22;5590338;31;34913;-69
2023/01/26 09:48:46;;;;;;;;;;;;;;;1.65;100.00;100926.31;5590972;31;34355;-69
2023/01/26 09:52:09;;;;;;;;;;;;;;;1.59;100.00;100925.88;5576878;31;33078;-68
2023/01/26 09:55:16;;;;;;;;;;;;;;;1.68;100.00;100918.31;5576977;31;34105;-68
2023/01/26 09:58:33;;;;;;;;;;;;;;;1.95;100.00;100906.97;5590021;31;34223;-69
2023/01/26 10:01:50;;;;;;;;;;;;;;;1.73;100.00;100902.31;5577266;31;34923;-69
2023/01/26 10:04:57;;;;;;;;;;;;;;;1.52;100.00;100901.91;5564162;31;34645;-68
2023/01/26 10:08:03;;;;;;;;;;;;;;;1.49;100.00;100903.88;5570146;32;34227;-70
2023/01/26 10:11:15;;;;;;;;;;;;;;;1.47;100.00;100901.34;5569940;32;33156;-68
2023/01/26 10:14:32;;;;;;;;;;;;;;;1.77;100.00;100889.84;5569995;32;34825;-67
2023/01/26 10:17:39;;;;;;;;;;;;;;;1.49;100.00;100888.19;5557188;32;34216;-68
2023/01/26 10:20:46;;;;;;;;;;;;;;;1.53;100.00;100884.44;5570610;32;34800;-69
2023/01/26 10:23:52;;;;;;;;;;;;;;;1.77;100.00;100874.16;5569890;32;34232;-70
2023/01/26 10:26:57;;;;;;;;;;;;;;;1.75;100.00;100874.25;5569875;32;34060;-68
2023/01/26 10:30:02;;;;;;;;;;;;;;;1.51;100.00;100861.00;5570757;32;34492;-68
2023/01/26 10:33:31;;;;;;;;;;;;;;;1.60;100.00;100863.00;5570013;32;34769;-69
2023/01/26 10:36:36;;;;;;;;;;;;;;;1.65;100.00;100852.25;5562298;32;34751;-68
2023/01/26 10:40:01;;;;;;;;;;;;;;;1.71;100.00;100851.84;5570583;32;32854;-69
2023/01/26 10:43:16;;;;;;;;;;;;;;;1.54;100.00;100849.50;5570849;32;34176;-69
2023/01/26 10:46:31;;;;;;;;;;;;;;;1.61;100.00;100849.00;5570304;32;34120;-69
2023/01/26 10:49:35;;;;;;;;;;;;;;;1.68;100.00;100849.47;5569886;32;34150;-69
2023/01/26 10:52:55;;;;;;;;;;;;;;;1.81;100.00;100850.31;5569750;32;34877;-69
2023/01/26 10:56:11;;;;;;;;;;;;;;;1.58;100.00;100841.38;5570328;32;34206;-69
2023/01/26 10:59:22;;;;;;;;;;;;;;;1.43;100.00;100847.59;5570516;32;34415;-70
2023/01/26 11:02:28;;;;;;;;;;;;;;;1.80;100.00;100829.50;5569692;32;34843;-68
2023/01/26 11:05:34;;;;;;;;;;;;;;;1.67;100.00;100837.31;5569718;32;34070;-69
2023/01/26 11:08:39;;;;;;;;;;;;;;;1.63;100.00;100828.84;5584309;31;34809;-69
2023/01/26 11:12:04;;;;;;;;;;;;;;;1.75;100.00;100821.94;5590095;31;34876;-69
2023/01/26 11:15:15;;;;;;;;;;;;;;;1.69;100.00;100817.94;5590234;31;34147;-69
2023/01/26 11:18:26;;;;;;;;;;;;;;;1.87;100.00;100818.53;5589907;31;34870;-70
2023/01/26 11:21:37;;;;;;;;;;;;;;;1.83;100.00;100816.22;5576317;31;34064;-70
2023/01/26 11:24:49;;;;;;;;;;;;;;;1.83;100.00;100809.22;5589477;31;34695;-70
2023/01/26 11:27:52;;;;;;;;;;;;;;;1.97;100.00;100806.53;5590012;31;34823;-70
2023/01/26 11:31:09;;;;;;;;;;;;;;;1.69;100.00;100802.25;5589542;31;34109;-70
2023/01/26 11:34:13;;;;;;;;;;;;;;;1.74;100.00;100796.75;5563219;31;33651;-70
2023/01/26 11:37:37;;;;;;;;;;;;;;;1.62;100.00;100793.16;5576174;31;34580;-70
2023/01/26 11:41:06;;;;;;;;;;;;;;;1.45;100.00;100796.06;5576063;31;34240;-70
2023/01/26 11:44:14;;;;;;;;;;;;;;;1.37;100.00;100789.63;5576067;31;34092;-70
2023/01/26 11:47:17;;;;;;;;;;;;;;;1.42;100.00;100787.53;5589551;31;35184;-70
2023/01/26 11:50:38;;;;;;;;;;;;;;;1.56;100.00;100788.31;5575819;31;34621;-70
2023/01/26 11:53:47;;;;;;;;;;;;;;;1.58;100.00;100775.16;5589601;31;34226;-70
2023/01/26 11:57:03;;;;;;;;;;;;;;;1.75;100.00;100775.72;5575711;31;34862;-69
2023/01/26 12:00:14;;;;;;;;;;;;;;;1.79;100.00;100765.06;5575456;31;32668;-70
2023/01/26 12:03:33;;;;;;;;;;;;;;;2.06;100.00;100756.19;5589276;31;34727;-69
2023/01/26 12:06:39;;;;;;;;;;;;;;;1.89;100.00;100753.03;5589230;31;34957;-70
2023/01/26 12:09:48;;;;;;;;;;;;;;;1.79;100.00;100746.75;5575692;31;34576;-70
2023/01/26 12:13:02;;;;;;;;;;;;;;;1.85;100.00;100736.69;5589243;31;34899;-69
2023/01/26 12:16:14;;;;;;;;;;;;;;;1.92;100.00;100734.50;5589409;31;34586;-70
2023/01/26 12:19:36;;;;;;;;;;;;;;;1.85;100.00;100731.47;5575143;31;34233;-70
2023/01/26 12:23:04;;;;;;;;;;;;;;;2.15;100.00;100737.22;5588846;31;34164;-68
2023/01/26 12:26:12;;;;;;;;;;;;;;;2.31;100.00;100734.41;5589119;31;34492;-69
2023/01/26 12:29:31;;;;;;;;;;;;;;;2.34;100.00;100735.94;5588928;31;34664;-71
2023/01/26 12:32:34;;;;;;;;;;;;;;;2.08;100.00;100728.09;5575053;31;33773;-70
2023/01/26 12:35:56;;;;;;;;;;;;;;;1.97;100.00;100722.78;5575500;31;34681;-69
2023/01/26 12:39:21;;;;;;;;;;;;;;;2.23;100.00;100725.41;5562046;31;34063;-70
2023/01/26 12:42:44;;;;;;;;;;;;;;;2.54;100.00;100712.66;5589143;31;34269;-70
2023/01/26 12:45:50;;;;;;;;;;;;;;;2.65;100.00;100717.16;5576146;31;34193;-70
2023/01/26 12:49:01;;;;;;;;;;;;;;;2.51;100.00;100715.50;5575080;31;34665;-69
2023/01/26 12:52:12;;;;;;;;;;;;;;;2.45;100.00;100710.69;5575185;31;34907;-70
2023/01/26 12:55:21;;;;;;;;;;;;;;;2.42;100.00;100707.47;5574774;31;34376;-70
2023/01/26 12:58:28;;;;;;;;;;;;;;;2.17;100.00;100711.81;5588464;31;34251;-70
2023/01/26 13:01:37;;;;;;;;;;;;;;;2.39;100.00;100718.13;5574806;31;34250;-70
2023/01/26 13:04:44;;;;;;;;;;;;;;;2.17;100.00;100711.81;5588285;31;34128;-69
2023/01/26 13:07:51;;;;;;;;;;;;;;;2.09;100.00;100701.00;5588154;31;34163;-69
2023/01/26 13:10:56;;;;;;;;;;;;;;;1.85;100.00;100701.84;5574660;31;34328;-69
2023/01/26 13:14:21;;;;;;;;;;;;;;;1.77;100.00;100702.38;5588447;31;34218;-70
2023/01/26 13:17:26;;;;;;;;;;;;;;;1.99;100.00;100693.88;5574303;31;34571;-70
2023/01/26 13:20:45;;;;;;;;;;;;;;;2.05;100.00;100691.69;5574465;31;34153;-70
2023/01/26 13:23:48;;;;;;;;;;;;;;;1.88;100.00;100697.25;5574386;31;34789;-70
2023/01/26 13:26:56;;;;;;;;;;;;;;;1.83;100.00;100690.66;5587862;31;34193;-70
2023/01/26 13:30:00;;;;;;;;;;;;;;;1.88;100.00;100693.81;5574167;31;34300;-70
2023/01/26 13:33:12;;;;;;;;;;;;;;;1.77;100.00;100689.31;5576595;31;34804;-70
2023/01/26 13:36:18;;;;;;;;;;;;;;;1.56;100.00;100683.72;5590774;31;34762;-69
2023/01/26 13:39:22;;;;;;;;;;;;;;;1.54;100.00;100688.25;5577051;31;34869;-69
2023/01/26 13:42:40;;;;;;;;;;;;;;;1.52;100.00;100684.87;5590867;31;33993;-69
2023/01/26 13:46:03;;;;;;;;;;;;;;;1.48;100.00;100686.03;5577150;31;34710;-69
2023/01/26 13:49:25;;;;;;;;;;;;;;;1.49;100.00;100698.19;5590515;31;34161;-71
2023/01/26 13:52:29;;;;;;;;;;;;;;;1.51;100.00;100692.81;5576429;31;33767;-70
2023/01/26 13:55:34;;;;;;;;;;;;;;;1.42;100.00;100690.81;5590590;31;34066;-71
2023/01/26 13:58:38;;;;;;;;;;;;;;;1.42;100.00;100688.22;5590430;31;34291;-69
2023/01/26 14:01:42;;;;;;;;;;;;;;;1.39;100.00;100680.59;5590471;31;33656;-69
2023/01/26 14:04:54;;;;;;;;;;;;;;;1.39;100.00;100680.59;5590662;31;34533;-69
2023/01/26 14:07:58;;;;;;;;;;;;;;;1.41;100.00;100684.75;5576305;31;34716;-70
2023/01/26 14:11:14;;;;;;;;;;;;;;;1.43;100.00;100682.88;5577252;31;34139;-71
2023/01/26 14:14:22;;;;;;;;;;;;;;;1.41;100.00;100682.13;5590374;31;34380;-69
2023/01/26 14:17:32;;;;;;;;;;;;;;;1.45;100.00;100685.41;5590262;31;34794;-69
2023/01/26 14:20:40;;;;;;;;;;;;;;;1.43;100.00;100684.66;5590287;31;34285;-69
2023/01/26 14:23:43;;;;;;;;;;;;;;;1.43;100.00;100689.88;5576547;31;34241;-69
2023/01/26 14:26:47;;;;;;;;;;;;;;;1.42;100.00;100690.81;5576487;31;34350;-69
2023/01/26 14:29:53;;;;;;;;;;;;;;;1.49;100.00;100689.50;5590316;31;34090;-70
2023/01/26 14:33:04;;;;;;;;;;;;;;;1.46;100.00;100685.28;5590156;31;34146;-69
2023/01/26 14:36:13;;;;;;;;;;;;;;;1.49;100.00;100687.72;5576657;31;34241;-70
2023/01/26 14:39:19;;;;;;;;;;;;;;;1.44;100.00;100687.19;5590163;31;34274;-70
2023/01/26 14:42:24;;;;;;;;;;;;;;;1.53;100.00;100683.94;5590081;31;34240;-69
2023/01/26 14:45:30;;;;;;;;;;;;;;;1.60;100.00;100686.97;5590229;31;34492;-70
2023/01/26 14:48:43;;;;;;;;;;;;;;;1.73;100.00;100678.22;5589846;31;34226;-71
2023/01/26 14:51:55;;;;;;;;;;;;;;;1.60;100.00;100679.12;5590083;31;33971;-72
2023/01/26 14:55:05;;;;;;;;;;;;;;;1.47;100.00;100673.91;5576367;31;34047;-70
2023/01/26 14:58:14;;;;;;;;;;;;;;;1.49;100.00;100676.41;5589767;31;34803;-70
2023/01/26 15:01:24;;;;;;;;;;;;;;;1.39;100.00;100685.81;5589835;31;34716;-71
2023/01/26 15:04:35;;;;;;;;;;;;;;;1.41;100.00;100668.22;5576176;31;34142;-71
2023/01/26 15:07:45;;;;;;;;;;;;;;;1.47;100.00;100679.12;5576136;31;35017;-70
2023/01/26 15:10:52;;;;;;;;;;;;;;;1.49;100.00;100681.66;5589611;31;34219;-69
2023/01/26 15:13:58;;;;;;;;;;;;;;;1.46;100.00;100679.22;5589604;31;34256;-69
2023/01/26 15:17:02;;;;;;;;;;;;;;;1.41;100.00;100682.13;5589861;31;33232;-69
2023/01/26 15:20:30;;;;;;;;;;;;;;;1.42;100.00;100682.97;5589417;31;34268;-69
2023/01/26 15:23:44;;;;;;;;;;;;;;;1.38;100.00;100686.75;5554876;31;34758;-69
2023/01/26 15:26:50;;;;;;;;;;;;;;;1.30;100.00;100680.25;5575995;31;34749;-70
2023/01/26 15:29:58;;;;;;;;;;;;;;;1.39;100.00;100685.81;5589750;31;34770;-70
2023/01/26 15:33:03;;;;;;;;;;;;;;;1.35;100.00;100674.72;5589503;31;34204;-70
2023/01/26 15:36:28;;;;;;;;;;;;;;;1.24;100.00;100683.28;5589647;31;34735;-69
2023/01/26 15:39:35;;;;;;;;;;;;;;;1.24;100.00;100688.50;5589383;31;34855;-70
2023/01/26 15:42:40;;;;;;;;;;;;;;;1.24;100.00;100679.81;5575771;31;34819;-69
2023/01/26 15:45:55;;;;;;;;;;;;;;;1.19;100.00;100676.66;5575804;31;33775;-69
2023/01/26 15:48:59;;;;;;;;;;;;;;;1.17;100.00;100682.00;5589383;31;34859;-69
2023/01/26 15:52:10;;;;;;;;;;;;;;;1.12;100.00;100672.78;5575482;31;32923;-69
2023/01/26 15:55:19;;;;;;;;;;;;;;;1.20;100.00;100675.75;5588559;31;33709;-70
2023/01/26 15:58:25;;;;;;;;;;;;;;;1.20;100.00;100680.97;5575859;31;34640;-70
2023/01/26 16:01:29;;;;;;;;;;;;;;;1.20;100.00;100683.56;5589419;31;35003;-69
2023/01/26 16:04:35;;;;;;;;;;;;;;;1.14;100.00;100686.59;5589624;31;34079;-70
2023/01/26 16:07:39;;;;;;;;;;;;;;;1.19;100.00;100689.72;5568526;32;35434;-70
2023/01/26 16:10:45;;;;;;;;;;;;;;;1.23;100.00;100688.59;5569849;32;34216;-69
2023/01/26 16:13:52;;;;;;;;;;;;;;;1.25;100.00;100687.56;5568647;32;34152;-70
2023/01/26 16:17:13;;;;;;;;;;;;;;;1.33;100.00;100696.66;5568647;32;34215;-70
2023/01/26 16:20:19;;;;;;;;;;;;;;;1.35;100.00;100687.81;5569455;32;34699;-71
2023/01/26 16:23:26;;;;;;;;;;;;;;;1.35;100.00;100679.12;5555850;32;34896;-70
2023/01/26 16:26:32;;;;;;;;;;;;;;;1.22;100.00;100684.28;5569426;32;34747;-69
2023/01/26 16:29:41;;;;;;;;;;;;;;;1.16;100.00;100676.88;5569398;32;34095;-69
2023/01/26 16:32:47;;;;;;;;;;;;;;;1.18;100.00;100685.44;5568747;32;34635;-69
2023/01/26 16:35:55;;;;;;;;;;;;;;;1.21;100.00;100680.84;5569326;32;34715;-70
2023/01/26 16:39:06;;;;;;;;;;;;;;;1.25;100.00;100682.34;5568468;32;34201;-69
2023/01/26 16:42:17;;;;;;;;;;;;;;;1.15;100.00;100683.88;5569175;32;34362;-69
2023/01/26 16:45:27;;;;;;;;;;;;;;;1.17;100.00;100676.75;5568405;32;33989;-70
2023/01/26 16:48:36;;;;;;;;;;;;;;;1.22;100.00;100686.91;5569080;32;34779;-69
2023/01/26 16:51:45;;;;;;;;;;;;;;;1.20;100.00;100683.56;5569286;32;34899;-70
2023/01/26 16:54:56;;;;;;;;;;;;;;;1.11;100.00;100682.41;5568009;32;33211;-69
2023/01/26 16:58:00;;;;;;;;;;;;;;;1.14;100.00;100676.12;5567872;32;34899;-69
2023/01/26 17:01:19;;;;;;;;;;;;;;;1.16;100.00;100687.34;5568730;32;34295;-69
2023/01/26 17:04:28;;;;;;;;;;;;;;;1.24;100.00;100683.28;5567800;32;34770;-69